aviador You're here:

KMSP Decoded Metar

MINNEAPOLIS in MN, USA
Report Time2017-09-25 19:53:00
UTC Time2017-09-25 20:36:20
Flight Rules mvfr MVFR
Wind330° at 09 kt
W.Decomp.*RWY 35: 8.5 kt HW 3.1 kt LCW
RWY 30: 7.8 kt HW 4.5 kt RCW
RWY 04: 3.1 kt HW 8.5 kt LCW
W.Rank330° ranks 12
Current wind is below 330° avg. (9.7)
Visibility9999 m
Phenomena:N/A
Clouds:Overcast 011 Hf
Expected CloudBase > 800 ft AGL from Temp-Dew spread
Ceiling1,100 ft
Temp17°C (ISA +4)
Dew Point15°C (88% RH)
AAT15.4°C
QNH1015 hPa
Density Alt1,470 ft
Elevation869 ft
Report Wrong Elevation
Raw Report
KMSP 251953Z 33009KT 10SM OVC011 17/15 A2998 RMK AO2 SLP149
T01670150=

Extra information for KMSP:More info

Metar Taf Metar & Taf Last 4 Metars F.Rules Stats Wind Profile Meteogram Temp Stats Airport Information Weather charts Add Link Nearby VenuesMetar ALERT Operation Metar Decoded Social comments

AIRNAV info for KMSP